Time;durP1;ratioP1;P1;durP2;ratioP2;P2;SDS_P1;SDS_P2;PMS_P1;PMS_P2;Temp;Humidity;BMP_temperature;BMP_pressure;BME280_temperature;BME280_humidity;BME280_pressure;Samples;Min_cycle;Max_cycle;Signal;HPM_P1;HPM_P2
2022/02/06 00:02:04;;;;;;;23.63;12.00;;;;;;;2.33;100.00;98621.22;5058195;28;20035;-77
2022/02/06 00:04:29;;;;;;;20.27;10.90;;;;;;;2.34;100.00;98620.16;5066089;28;20025;-77
2022/02/06 00:06:54;;;;;;;24.33;10.90;;;;;;;2.21;100.00;98609.53;5062385;28;20056;-78
2022/02/06 00:09:20;;;;;;;23.63;10.50;;;;;;;2.15;100.00;98614.78;5057920;28;20115;-78
2022/02/06 00:11:45;;;;;;;21.50;10.85;;;;;;;2.14;100.00;98618.53;5065419;28;20078;-78
2022/02/06 00:14:11;;;;;;;23.13;10.52;;;;;;;2.15;100.00;98619.34;5041053;28;20033;-75
2022/02/06 00:16:36;;;;;;;27.77;10.60;;;;;;;1.99;100.00;98611.84;5049866;28;20028;-76
2022/02/06 00:19:02;;;;;;;20.55;10.43;;;;;;;2.01;100.00;98612.44;5055404;28;20041;-77
2022/02/06 00:21:30;;;;;;;23.95;11.07;;;;;;;1.92;100.00;98609.22;5052709;28;20025;-76
2022/02/06 00:23:56;;;;;;;21.80;11.25;;;;;;;1.84;100.00;98612.22;5054292;28;20479;-75
2022/02/06 00:31:47;;;;;;;23.90;10.48;;;;;;;1.71;100.00;98606.13;5053022;28;20025;-77
2022/02/06 00:39:16;;;;;;;20.02;10.38;;;;;;;1.74;100.00;98600.28;5053176;28;20033;-79
2022/02/06 00:41:41;;;;;;;26.50;12.27;;;;;;;1.71;100.00;98603.44;5053066;28;20103;-77
2022/02/06 00:44:09;;;;;;;20.90;11.20;;;;;;;1.79;100.00;98598.56;5058254;28;20554;-78
2022/02/06 00:46:39;;;;;;;24.35;11.55;;;;;;;1.67;100.00;98600.34;5065693;28;20025;-82
2022/02/06 00:49:22;;;;;;;21.73;11.70;;;;;;;1.60;100.00;98608.50;5054835;28;20573;-86
2022/02/06 00:51:57;;;;;;;24.70;11.45;;;;;;;1.50;100.00;98592.00;5052865;28;20421;-79
2022/02/06 00:54:22;;;;;;;22.45;10.80;;;;;;;1.57;100.00;98594.63;5053187;28;20082;-84
2022/02/06 00:56:48;;;;;;;24.60;10.93;;;;;;;1.47;100.00;98578.19;5052889;28;20436;-76
2022/02/06 00:59:13;;;;;;;23.92;10.88;;;;;;;1.38;100.00;98590.28;5053433;28;20492;-78
2022/02/06 01:01:41;;;;;;;24.50;11.50;;;;;;;1.34;100.00;98595.28;5059899;28;20040;-82
2022/02/06 01:04:11;;;;;;;26.45;11.07;;;;;;;1.21;100.00;98589.19;5051779;28;20575;-78
2022/02/06 01:06:37;;;;;;;24.15;11.65;;;;;;;1.45;100.00;98588.34;5057530;28;20108;-78
2022/02/06 01:09:02;;;;;;;23.95;10.23;;;;;;;1.33;100.00;98571.25;5069039;28;20029;-79
2022/02/06 01:11:29;;;;;;;26.52;12.15;;;;;;;1.30;100.00;98594.06;5069408;28;20047;-78
2022/02/06 01:16:25;;;;;;;26.13;12.02;;;;;;;1.27;100.00;98577.50;5067316;28;20066;-81
2022/02/06 01:18:59;;;;;;;31.58;11.77;;;;;;;1.19;100.00;98585.88;5052689;28;20032;-81
2022/02/06 01:23:58;;;;;;;24.23;11.43;;;;;;;1.19;100.00;98577.81;5052445;28;20120;-78
2022/02/06 01:26:50;;;;;;;22.50;11.25;;;;;;;1.19;100.00;98577.81;5051174;28;20021;-77
2022/02/06 01:34:05;;;;;;;23.92;11.48;;;;;;;0.96;100.00;98562.22;5052385;28;20028;-79
2022/02/06 01:41:42;;;;;;;23.23;11.88;;;;;;;0.95;100.00;98568.66;5051868;28;20158;-78
2022/02/06 02:01:00;;;;;;;25.25;11.88;;;;;;;0.71;100.00;98556.81;5051388;28;20021;-79
2022/02/06 02:03:45;;;;;;;21.95;10.80;;;;;;;0.70;100.00;98554.34;5051760;28;20005;-81
2022/02/06 02:06:34;;;;;;;18.90;10.30;;;;;;;0.65;100.00;98552.31;5050291;28;20020;-80
2022/02/06 02:10:02;;;;;;;23.95;11.55;;;;;;;0.56;100.00;98537.47;5051875;28;20032;-79
2022/02/06 02:20:17;;;;;;;27.52;11.63;;;;;;;0.48;100.00;98525.09;5051154;28;20036;-82
2022/02/06 02:43:44;;;;;;;21.90;11.10;;;;;;;0.10;100.00;98492.00;5052959;28;20036;-81
2022/02/06 02:46:24;;;;;;;19.83;10.45;;;;;;;0.04;100.00;98489.34;5053700;28;20024;-82
2022/02/06 02:48:50;;;;;;;24.58;11.45;;;;;;;-0.01;100.00;98495.38;5056878;28;20021;-82
2022/02/06 02:51:17;;;;;;;24.05;11.52;;;;;;;-0.02;100.00;98497.25;5059430;28;20412;-85
2022/02/06 02:53:50;;;;;;;21.67;11.70;;;;;;;-0.03;100.00;98495.59;5055998;28;20013;-82
2022/02/06 02:56:36;;;;;;;22.10;11.90;;;;;;;-0.01;100.00;98501.59;5050230;28;20120;-81
2022/02/06 02:59:12;;;;;;;23.20;11.75;;;;;;;-0.09;100.00;98491.06;5054943;28;20021;-83
2022/02/06 03:01:51;;;;;;;25.75;11.68;;;;;;;-0.11;100.00;98493.16;5068787;28;20103;-82
2022/02/06 03:04:17;;;;;;;25.25;12.23;;;;;;;-0.30;100.00;98482.47;5055688;28;20098;-81
2022/02/06 03:06:42;;;;;;;24.13;12.98;;;;;;;-0.33;100.00;98494.50;5055667;28;20421;-82
2022/02/06 03:09:08;;;;;;;25.10;12.02;;;;;;;-0.28;100.00;98481.22;5049987;28;20029;-82
2022/02/06 03:11:33;;;;;;;22.48;12.43;;;;;;;-0.21;100.00;98471.28;5051221;28;20048;-84
2022/02/06 03:14:13;;;;;;;25.75;13.27;;;;;;;-0.32;100.00;98469.28;5050583;28;20036;-81
2022/02/06 03:16:47;;;;;;;22.92;12.27;;;;;;;-0.24;100.00;98463.66;5049730;28;20128;-80
2022/02/06 03:19:17;;;;;;;24.08;12.70;;;;;;;-0.10;100.00;98480.53;5049380;28;20059;-81
2022/02/06 03:21:44;;;;;;;30.45;15.05;;;;;;;-0.23;100.00;98451.03;5049324;28;20057;-80
2022/02/06 03:26:42;;;;;;;32.40;15.15;;;;;;;-0.31;100.00;98454.78;5052469;28;20112;-79
2022/02/06 03:29:07;;;;;;;29.50;14.60;;;;;;;-0.21;100.00;98443.56;5054543;28;20120;-82
2022/02/06 03:31:34;;;;;;;29.65;16.08;;;;;;;-0.09;100.00;98457.97;5054574;28;20029;-79
2022/02/06 03:33:59;;;;;;;26.92;15.15;;;;;;;-0.09;100.00;98447.22;5054276;28;20075;-81
2022/02/06 03:36:25;;;;;;;26.58;14.93;;;;;;;-0.15;100.00;98450.78;5054101;28;20032;-79
2022/02/06 03:38:53;;;;;;;27.27;14.27;;;;;;;-0.07;100.00;98442.47;5054194;28;20021;-76
2022/02/06 03:41:19;;;;;;;24.45;13.35;;;;;;;-0.19;100.00;98447.69;5054161;28;20021;-76
2022/02/06 03:48:53;;;;;;;23.08;12.68;;;;;;;-0.23;100.00;98443.81;5053759;28;20052;-76
2022/02/06 03:51:23;;;;;;;27.95;14.05;;;;;;;-0.27;100.00;98445.25;5052345;28;20045;-77
2022/02/06 03:53:53;;;;;;;21.17;12.52;;;;;;;-0.36;100.00;98440.34;5053653;28;20389;-76
2022/02/06 03:56:20;;;;;;;23.73;12.65;;;;;;;-0.51;100.00;98437.13;5052324;28;20482;-77
2022/02/06 03:58:46;;;;;;;23.02;11.80;;;;;;;-0.42;100.00;98446.56;5052412;28;20036;-75
2022/02/06 04:01:12;;;;;;;26.15;12.82;;;;;;;-0.39;100.00;98455.03;5054852;28;20018;-75
2022/02/06 04:03:37;;;;;;;25.92;13.27;;;;;;;-0.45;100.00;98441.63;5052371;28;20021;-78
2022/02/06 04:06:02;;;;;;;24.45;12.85;;;;;;;-0.46;100.00;98434.59;5053367;28;20040;-76
2022/02/06 04:08:30;;;;;;;22.20;12.30;;;;;;;-0.53;100.00;98437.31;5051998;28;20025;-76
2022/02/06 04:10:57;;;;;;;26.30;13.55;;;;;;;-0.51;100.00;98429.88;5052247;28;20063;-78
2022/02/06 04:13:25;;;;;;;23.45;12.55;;;;;;;-0.61;100.00;98437.56;5053587;28;20036;-77
2022/02/06 04:15:58;;;;;;;28.25;13.55;;;;;;;-0.63;100.00;98439.66;5052152;28;20029;-78
2022/02/06 04:18:41;;;;;;;31.02;14.00;;;;;;;-0.71;100.00;98431.81;5052045;28;20025;-77
2022/02/06 04:21:06;;;;;;;27.23;14.00;;;;;;;-0.77;100.00;98421.91;5052397;28;20460;-77
2022/02/06 04:23:32;;;;;;;25.15;13.00;;;;;;;-0.70;100.00;98409.28;5052056;28;20025;-76
2022/02/06 04:25:57;;;;;;;22.77;12.30;;;;;;;-0.74;100.00;98414.25;5051755;28;20497;-78
2022/02/06 04:28:23;;;;;;;24.60;13.55;;;;;;;-0.60;100.00;98421.25;5051526;28;20033;-76
2022/02/06 04:30:48;;;;;;;24.88;13.55;;;;;;;-0.64;100.00;98416.50;5053188;28;20390;-75
2022/02/06 04:33:14;;;;;;;27.27;13.40;;;;;;;-0.75;100.00;98391.13;5053133;28;20474;-76
2022/02/06 04:35:40;;;;;;;24.42;12.73;;;;;;;-0.68;100.00;98397.31;5052794;28;20028;-77
2022/02/06 04:49:08;;;;;;;27.05;13.93;;;;;;;-0.70;100.00;98390.50;5052800;28;20037;-80
2022/02/06 04:54:46;;;;;;;30.40;14.20;;;;;;;-0.85;100.00;98401.50;5053096;28;20542;-76
2022/02/06 05:14:15;;;;;;;27.27;14.40;;;;;;;-1.09;100.00;98391.44;5053017;28;20425;-75
2022/02/06 05:27:14;;;;;;;28.70;14.55;;;;;;;-1.02;100.00;98380.69;5052015;28;20033;-75
2022/02/06 05:32:36;;;;;;;29.52;16.85;;;;;;;-1.07;100.00;98368.72;5052411;28;20481;-74
2022/02/06 05:35:02;;;;;;;27.70;14.50;;;;;;;-1.04;100.00;98380.09;5051682;28;20398;-75
2022/02/06 05:37:28;;;;;;;30.73;15.73;;;;;;;-1.00;100.00;98375.97;5052173;28;20047;-77
2022/02/06 05:39:53;;;;;;;28.70;16.02;;;;;;;-1.13;100.00;98377.63;5050916;28;20607;-77
2022/02/06 05:42:22;;;;;;;37.85;18.02;;;;;;;-1.09;100.00;98378.84;5051926;28;20033;-77
2022/02/06 05:44:54;;;;;;;31.77;16.88;;;;;;;-1.24;100.00;98366.72;5025870;28;20044;-77
2022/02/06 05:47:20;;;;;;;26.45;15.65;;;;;;;-1.16;100.00;98374.56;5047443;28;20079;-77
2022/02/06 05:49:45;;;;;;;31.50;15.73;;;;;;;-1.13;100.00;98374.94;5049564;28;20033;-80
2022/02/06 05:52:11;;;;;;;30.00;16.23;;;;;;;-1.22;100.00;98362.78;5034852;28;20041;-76
2022/02/06 05:54:36;;;;;;;33.42;16.80;;;;;;;-1.19;100.00;98370.41;5031989;28;20037;-76
2022/02/06 05:57:02;;;;;;;28.02;15.77;;;;;;;-1.16;100.00;98375.34;5031499;28;20143;-75
2022/02/06 05:59:28;;;;;;;28.77;15.50;;;;;;;-1.20;100.00;98376.84;5031616;28;20036;-77
2022/02/06 06:01:55;;;;;;;32.35;16.73;;;;;;;-1.26;100.00;98369.63;5032913;28;20025;-75
2022/02/06 06:04:20;;;;;;;32.15;17.13;;;;;;;-1.26;100.00;98377.69;5049723;28;20060;-75
2022/02/06 06:06:46;;;;;;;31.75;16.08;;;;;;;-1.21;100.00;98371.66;5057713;28;20056;-79
2022/02/06 06:09:11;;;;;;;33.05;17.30;;;;;;;-1.33;100.00;98379.53;5057484;28;20033;-77
2022/02/06 06:11:36;;;;;;;44.70;17.40;;;;;;;-1.22;100.00;98362.78;5058954;28;20120;-76
2022/02/06 06:14:02;;;;;;;31.42;16.67;;;;;;;-1.14;100.00;98380.53;5058442;28;20017;-75
2022/02/06 06:16:27;;;;;;;28.58;16.38;;;;;;;-1.16;100.00;98372.66;5050521;28;20036;-74
2022/02/06 06:18:53;;;;;;;30.70;17.13;;;;;;;-1.14;100.00;98362.56;5051629;28;20027;-76
2022/02/06 06:21:21;;;;;;;37.22;18.67;;;;;;;-1.00;100.00;98373.28;5050188;28;20478;-76
2022/02/06 06:23:47;;;;;;;36.70;16.90;;;;;;;-1.09;100.00;98376.16;5051081;28;20024;-76
2022/02/06 06:26:16;;;;;;;30.65;16.35;;;;;;;-1.16;100.00;98375.34;5051010;28;20386;-75
2022/02/06 06:28:42;;;;;;;38.58;17.52;;;;;;;-1.11;100.00;98383.63;5051151;28;20108;-75
2022/02/06 06:31:07;;;;;;;31.58;15.63;;;;;;;-1.03;100.00;98384.44;5053547;28;20101;-77
2022/02/06 06:33:32;;;;;;;28.40;16.33;;;;;;;-0.97;100.00;98378.22;5061019;28;20025;-75
2022/02/06 06:35:59;;;;;;;35.80;16.33;;;;;;;-0.83;100.00;98398.59;5053722;28;20394;-75
2022/02/06 06:38:25;;;;;;;28.95;16.45;;;;;;;-0.70;100.00;98390.50;5049217;28;20029;-75
2022/02/06 06:40:51;;;;;;;39.20;16.63;;;;;;;-0.69;100.00;98403.69;5030783;28;20148;-75
2022/02/06 06:43:16;;;;;;;34.67;16.75;;;;;;;-0.49;100.00;98395.56;5031228;28;20104;-76
2022/02/06 06:45:43;;;;;;;30.20;16.23;;;;;;;-0.31;100.00;98401.03;5033577;28;20040;-74
2022/02/06 06:48:08;;;;;;;32.58;16.90;;;;;;;-0.08;100.00;98395.97;5046219;28;20524;-75
2022/02/06 06:50:34;;;;;;;26.25;15.20;;;;;;;0.07;100.00;98386.75;5047807;28;20053;-76
2022/02/06 06:53:04;;;;;;;30.10;16.20;;;;;;;0.38;100.00;98386.72;5047538;28;20437;-78
2022/02/06 06:55:32;;;;;;;32.78;15.23;;;;;;;0.66;100.00;98391.66;5049230;28;20567;-76
2022/02/06 06:58:27;;;;;;;34.35;15.32;;;;;;;0.96;100.00;98388.03;5046544;28;20040;-75
2022/02/06 07:03:53;;;;;;;28.17;15.15;;;;;;;1.18;100.00;98399.19;5030394;28;20108;-76
2022/02/06 07:06:19;;;;;;;31.50;17.75;;;;;;;1.11;100.00;98393.03;5015314;28;20132;-75
2022/02/06 07:08:47;;;;;;;29.33;15.80;;;;;;;1.36;100.00;98398.34;5042162;28;20402;-72
2022/02/06 07:11:12;;;;;;;30.92;15.88;;;;;;;1.32;100.00;98397.16;5054097;28;20033;-72
2022/02/06 07:13:37;;;;;;;28.25;14.90;;;;;;;1.63;100.00;98393.47;5048829;28;20029;-73
2022/02/06 07:16:03;;;;;;;31.15;15.55;;;;;;;1.67;100.00;98390.06;5051558;28;20052;-73
2022/02/06 07:18:29;;;;;;;28.52;16.45;;;;;;;1.66;100.00;98388.44;5052998;28;20029;-72
2022/02/06 07:20:54;;;;;;;32.08;16.63;;;;;;;1.64;100.00;98390.53;5052650;28;20386;-73
2022/02/06 07:23:19;;;;;;;32.40;17.15;;;;;;;1.60;100.00;98387.47;5052897;28;20108;-73
2022/02/06 07:25:49;;;;;;;28.02;14.90;;;;;;;1.81;100.00;98406.91;5052595;28;20017;-73
2022/02/06 07:28:17;;;;;;;28.45;15.70;;;;;;;1.86;100.00;98405.16;5051214;28;20013;-72
2022/02/06 07:30:44;;;;;;;28.80;16.48;;;;;;;1.97;100.00;98393.59;5055780;28;20025;-72
2022/02/06 07:33:11;;;;;;;32.60;17.35;;;;;;;2.17;100.00;98396.81;5053485;28;20482;-72
2022/02/06 07:35:37;;;;;;;30.95;16.30;;;;;;;2.43;100.00;98387.50;5051333;28;20029;-77
2022/02/06 07:38:03;;;;;;;26.52;14.35;;;;;;;2.53;100.00;98382.34;5053205;28;20029;-76
2022/02/06 07:40:28;;;;;;;29.60;15.27;;;;;;;2.63;100.00;98384.47;5055974;28;20021;-79
2022/02/06 07:42:54;;;;;;;25.88;14.77;;;;;;;2.46;100.00;98395.13;5053999;28;20017;-79
2022/02/06 07:45:20;;;;;;;30.00;16.17;;;;;;;2.32;100.00;98403.69;5053115;28;20025;-77
2022/02/06 07:47:46;;;;;;;28.33;15.63;;;;;;;2.23;100.00;98399.66;5053376;28;20025;-83
2022/02/06 07:50:14;;;;;;;30.67;14.38;;;;;;;2.01;100.00;98397.47;5050502;28;20036;-77
2022/02/06 07:52:40;;;;;;;31.65;16.38;;;;;;;1.95;100.00;98401.09;5046959;28;20021;-75
2022/02/06 07:55:07;;;;;;;29.60;15.30;;;;;;;1.63;100.00;98388.09;5046614;28;20031;-79
2022/02/06 07:57:33;;;;;;;31.67;16.02;;;;;;;1.57;100.00;98392.47;5044079;28;20045;-78
2022/02/06 07:59:59;;;;;;;31.35;15.25;;;;;;;1.61;100.00;98391.00;5047895;28;20543;-76
2022/02/06 08:02:25;;;;;;;30.25;16.10;;;;;;;1.50;100.00;98381.00;5052345;28;20037;-75
2022/02/06 08:04:51;;;;;;;36.67;18.05;;;;;;;1.65;100.00;98386.81;5051948;28;20474;-74
2022/02/06 08:07:16;;;;;;;30.48;15.88;;;;;;;1.85;100.00;98379.25;5050962;28;20506;-76
2022/02/06 08:12:24;;;;;;;29.05;15.35;;;;;;;2.24;100.00;98380.53;5048124;28;20432;-83
2022/02/06 08:17:16;;;;;;;27.65;14.63;;;;;;;2.55;100.00;98371.31;5042983;28;20040;-77
2022/02/06 08:19:43;;;;;;;27.27;15.15;;;;;;;2.51;100.00;98378.22;5033778;28;20037;-75
2022/02/06 08:22:09;;;;;;;28.60;15.48;;;;;;;2.35;100.00;98376.22;5037069;28;20476;-78
2022/02/06 08:24:35;;;;;;;29.73;15.25;;;;;;;2.29;100.00;98390.66;5034629;28;20025;-75
2022/02/06 08:27:00;;;;;;;33.75;15.32;;;;;;;2.19;100.00;98382.28;5043262;28;20023;-75
2022/02/06 08:29:29;;;;;;;33.85;16.30;;;;;;;2.17;100.00;98391.44;5052794;28;20021;-74
2022/02/06 08:31:54;;;;;;;29.25;14.57;;;;;;;2.35;100.00;98389.72;5053009;28;20479;-75
2022/02/06 08:34:19;;;;;;;30.27;16.08;;;;;;;2.38;100.00;98375.75;5053249;28;20078;-75
2022/02/06 08:36:45;;;;;;;28.90;15.40;;;;;;;2.23;100.00;98372.66;5056188;28;20479;-75
2022/02/06 08:39:10;;;;;;;33.70;15.30;;;;;;;2.40;100.00;98362.84;5052204;28;20037;-75
2022/02/06 08:41:35;;;;;;;33.08;15.10;;;;;;;2.63;100.00;98360.97;5052450;28;20539;-76
2022/02/06 08:44:03;;;;;;;25.55;15.05;;;;;;;2.81;100.00;98384.34;5052532;28;20492;-76
2022/02/06 08:46:28;;;;;;;32.60;14.82;;;;;;;2.92;100.00;98355.69;5051073;28;20115;-74
2022/02/06 08:48:54;;;;;;;33.30;16.98;;;;;;;2.96;100.00;98352.28;5051332;28;20116;-75
2022/02/06 08:51:19;;;;;;;31.80;16.42;;;;;;;2.89;100.00;98340.78;5050362;28;20360;-75
2022/02/06 08:53:45;;;;;;;31.42;17.05;;;;;;;3.01;100.00;98349.69;5046204;28;20545;-75
2022/02/06 08:56:10;;;;;;;27.83;16.05;;;;;;;2.94;100.00;98308.50;5045721;28;20039;-75
2022/02/06 08:58:35;;;;;;;26.50;15.40;;;;;;;3.52;100.00;98348.03;5048667;28;20021;-77
2022/02/06 09:01:02;;;;;;;26.92;15.73;;;;;;;5.19;91.61;98338.09;5050326;28;20049;-75
2022/02/06 09:03:27;;;;;;;29.48;15.63;;;;;;;5.74;86.39;98340.63;5049893;28;20021;-75
2022/02/06 09:05:53;;;;;;;26.45;14.85;;;;;;;7.12;79.18;98352.44;5051796;28;20117;-77
2022/02/06 09:08:18;;;;;;;35.58;17.05;;;;;;;8.32;74.60;98343.09;5050913;28;20061;-76
2022/02/06 09:10:43;;;;;;;49.63;25.95;;;;;;;8.88;69.08;98347.44;5051257;28;20067;-77
2022/02/06 09:13:09;;;;;;;24.42;15.45;;;;;;;8.17;71.10;98340.31;5055060;28;20449;-75
2022/02/06 09:15:34;;;;;;;30.17;14.68;;;;;;;8.34;74.37;98330.81;5057447;28;20020;-78
2022/02/06 09:18:00;;;;;;;26.80;16.00;;;;;;;8.54;70.80;98336.28;5056895;28;20418;-79
2022/02/06 09:20:25;;;;;;;28.48;14.38;;;;;;;9.04;69.75;98324.50;5051561;28;20132;-75
2022/02/06 09:22:51;;;;;;;27.08;15.65;;;;;;;8.48;70.05;98325.66;5065879;28;20541;-76
2022/02/06 09:25:17;;;;;;;24.33;14.95;;;;;;;7.61;74.18;98314.84;5051516;28;20072;-75
2022/02/06 09:27:43;;;;;;;27.90;15.80;;;;;;;6.80;75.70;98317.16;5059080;28;20067;-85
2022/02/06 09:30:12;;;;;;;30.55;16.60;;;;;;;5.64;81.42;98324.25;5066686;28;20028;-79
2022/02/06 09:37:31;;;;;;;31.42;17.92;;;;;;;5.05;87.18;98321.34;5049797;28;20029;-80
2022/02/06 09:39:58;;;;;;;30.20;17.30;;;;;;;5.13;88.04;98301.13;5052434;28;20029;-79
2022/02/06 09:42:27;;;;;;;29.77;16.27;;;;;;;5.08;88.06;98310.00;5066446;28;20107;-78
2022/02/06 09:44:53;;;;;;;28.13;16.95;;;;;;;4.93;88.96;98296.25;5063829;28;20032;-76
2022/02/06 09:47:37;;;;;;;30.73;16.40;;;;;;;5.23;87.51;98306.69;5073812;28;20660;-75
2022/02/06 09:50:04;;;;;;;36.10;16.58;;;;;;;5.57;86.14;98293.78;5058131;28;20025;-75
2022/02/06 09:52:30;;;;;;;32.30;15.52;;;;;;;5.69;84.82;98294.47;5049843;28;20029;-75
2022/02/06 09:55:03;;;;;;;25.25;15.60;;;;;;;5.83;84.52;98293.78;5050805;28;20478;-75
2022/02/06 09:57:31;;;;;;;29.70;16.92;;;;;;;5.63;84.93;98295.47;5050270;28;20056;-74
2022/02/06 09:59:58;;;;;;;35.53;16.88;;;;;;;5.55;85.34;98287.78;5050091;28;20494;-76
2022/02/06 10:02:30;;;;;;;32.00;16.73;;;;;;;5.27;86.43;98286.94;5050853;28;20029;-79
2022/02/06 10:04:57;;;;;;;30.98;16.08;;;;;;;5.28;87.38;98280.44;5051509;28;20024;-75
2022/02/06 10:07:41;;;;;;;30.73;15.50;;;;;;;5.34;87.40;98284.84;5052730;28;20021;-75
2022/02/06 10:10:10;;;;;;;29.65;15.98;;;;;;;5.78;85.97;98273.94;5047007;28;20514;-80
2022/02/06 10:12:41;;;;;;;28.77;15.30;;;;;;;5.75;85.18;98272.56;5055694;28;20025;-76
2022/02/06 10:15:10;;;;;;;29.75;15.68;;;;;;;6.00;83.13;98250.28;5051380;28;20033;-76
2022/02/06 10:17:36;;;;;;;27.10;14.93;;;;;;;5.88;83.31;98252.34;5050400;28;20505;-76
2022/02/06 10:20:10;;;;;;;30.35;16.83;;;;;;;5.62;84.84;98247.72;5050204;28;20025;-75
2022/02/06 10:22:50;;;;;;;27.65;15.68;;;;;;;5.23;87.00;98249.75;5049215;28;20416;-75
2022/02/06 10:25:17;;;;;;;32.20;16.23;;;;;;;5.15;87.79;98244.75;5049244;28;20033;-75
2022/02/06 10:28:21;;;;;;;28.80;14.57;;;;;;;5.46;86.91;98248.63;5051702;28;20478;-76
2022/02/06 10:30:52;;;;;;;29.27;14.23;;;;;;;5.53;85.97;98255.50;5050505;28;20029;-76
2022/02/06 10:33:21;;;;;;;27.60;14.13;;;;;;;5.37;86.56;98237.41;5050116;28;20024;-74
2022/02/06 10:35:53;;;;;;;24.60;13.07;;;;;;;5.18;87.38;98236.94;5049928;28;20421;-76
2022/02/06 10:38:29;;;;;;;30.00;14.48;;;;;;;4.90;89.23;98233.59;5049962;28;20021;-77
2022/02/06 10:41:11;;;;;;;20.65;13.05;;;;;;;4.98;89.28;98236.69;5051090;28;20037;-76
2022/02/06 10:43:38;;;;;;;23.25;12.65;;;;;;;5.03;89.32;98228.63;5047913;28;20051;-76
2022/02/06 10:46:14;;;;;;;21.95;13.25;;;;;;;4.99;90.52;98224.78;5050821;28;20024;-75
2022/02/06 10:48:49;;;;;;;;;;;;;;;5.29;89.13;98216.97;5051777;28;20033;-75
2022/02/06 10:51:34;;;;;;;26.60;14.57;;;;;;;5.44;87.94;98205.50;5050782;28;19916;-77
2022/02/06 10:54:00;;;;;;;30.65;13.88;;;;;;;5.35;88.48;98188.06;5048660;28;20505;-75
2022/02/06 10:56:25;;;;;;;27.65;13.93;;;;;;;5.46;88.37;98178.91;5050804;28;20048;-75
2022/02/06 10:59:04;;;;;;;32.35;14.00;;;;;;;5.21;90.95;98179.50;5049183;28;20087;-76
2022/02/06 11:01:31;;;;;;;31.60;14.40;;;;;;;5.13;91.84;98166.41;5049364;28;20091;-77
2022/02/06 11:04:24;;;;;;;33.58;14.77;;;;;;;5.46;91.66;98172.66;5049036;28;20029;-77
2022/02/06 11:07:05;;;;;;;30.70;14.57;;;;;;;5.60;91.32;98158.44;5049202;28;20120;-74
2022/02/06 11:09:31;;;;;;;33.58;14.80;;;;;;;5.80;90.84;98161.31;5050434;28;20390;-74
2022/02/06 11:12:03;;;;;;;31.42;13.77;;;;;;;5.81;91.78;98167.56;5050906;28;20052;-74
2022/02/06 11:14:31;;;;;;;31.52;14.15;;;;;;;5.81;92.27;98154.00;5050870;28;20031;-76
2022/02/06 11:16:57;;;;;;;32.08;16.42;;;;;;;5.81;93.86;98148.56;5050121;28;20106;-76
2022/02/06 11:19:23;;;;;;;30.65;14.30;;;;;;;5.76;94.17;98140.41;5053794;28;20027;-78
2022/02/06 11:22:08;;;;;;;31.45;15.82;;;;;;;6.04;94.78;98153.66;5057291;28;20021;-78
2022/02/06 11:24:39;;;;;;;31.85;15.18;;;;;;;6.26;95.03;98159.78;5056028;28;20033;-76
2022/02/06 11:27:06;;;;;;;34.45;17.80;;;;;;;6.24;98.16;98144.81;5051652;28;20043;-77
2022/02/06 11:29:32;;;;;;;33.55;16.60;;;;;;;6.27;98.63;98147.00;5050387;28;20040;-76
2022/02/06 11:31:58;;;;;;;36.15;17.65;;;;;;;6.21;100.00;98138.00;5050184;28;20055;-77
2022/02/06 11:34:25;;;;;;;32.60;17.75;;;;;;;6.22;100.00;98131.50;5050457;28;20056;-77
2022/02/06 11:45:40;;;;;;;43.55;21.85;;;;;;;6.70;100.00;98114.09;5050191;28;20060;-74
2022/02/06 11:48:12;;;;;;;42.95;22.48;;;;;;;6.62;100.00;98119.19;5052039;28;20041;-75
2022/02/06 11:50:47;;;;;;;37.35;21.00;;;;;;;6.51;100.00;98110.19;5033411;28;20467;-75
2022/02/06 11:53:29;;;;;;;36.97;20.67;;;;;;;6.66;100.00;98110.25;5033669;28;20025;-75
2022/02/06 11:55:56;;;;;;;38.75;20.13;;;;;;;6.39;100.00;98104.97;5032709;28;20075;-76
2022/02/06 11:58:33;;;;;;;35.65;19.30;;;;;;;6.45;100.00;98106.63;5070522;28;20052;-76
2022/02/06 12:01:05;;;;;;;47.50;21.85;;;;;;;6.52;100.00;98100.94;5064214;28;20025;-74
2022/02/06 12:04:04;;;;;;;36.67;20.55;;;;;;;6.52;100.00;98105.56;5059482;28;20017;-85
2022/02/06 12:06:50;;;;;;;37.67;20.45;;;;;;;6.38;100.00;98099.81;5056424;28;20047;-77
2022/02/06 12:09:25;;;;;;;35.97;20.02;;;;;;;6.32;100.00;98088.09;5055287;28;20147;-76
2022/02/06 12:12:13;;;;;;;41.08;21.48;;;;;;;6.13;100.00;98081.50;5054581;28;20812;-76
2022/02/06 12:14:44;;;;;;;44.22;20.42;;;;;;;6.37;100.00;98077.25;5054239;28;20429;-74
2022/02/06 12:17:55;;;;;;;43.95;22.73;;;;;;;6.38;100.00;98059.88;5055814;28;20040;-78
2022/02/06 12:20:08;;;;;;;48.33;25.30;;;;;;;6.57;100.00;98056.69;5053430;28;20052;-75
2022/02/06 12:22:39;;;;;;;62.53;32.45;;;;;;;6.85;100.00;98048.06;5051892;28;20078;-76
2022/02/06 12:25:26;;;;;;;61.20;33.70;;;;;;;7.02;100.00;98048.63;5053440;28;20509;-76
2022/02/06 12:28:10;;;;;;;59.28;33.53;;;;;;;7.16;100.00;98040.75;5052939;28;20059;-75
2022/02/06 12:30:39;;;;;;;75.85;39.92;;;;;;;7.12;100.00;98035.03;5053012;28;20028;-76
2022/02/06 12:33:25;;;;;;;69.65;36.95;;;;;;;7.30;100.00;98037.22;5053189;28;20359;-77
2022/02/06 12:38:35;;;;;;;74.47;40.10;;;;;;;7.49;100.00;98019.25;5033200;28;20084;-79
2022/02/06 12:41:25;;;;;;;77.32;37.22;;;;;;;7.51;100.00;98014.38;5031260;28;20057;-73
2022/02/06 12:43:54;;;;;;;73.38;38.50;;;;;;;7.40;100.00;98011.91;5043502;28;20029;-76
2022/02/06 12:46:25;;;;;;;75.45;40.25;;;;;;;7.38;100.00;97995.03;5064016;28;20462;-72
2022/02/06 12:48:51;;;;;;;67.85;38.97;;;;;;;7.50;100.00;98004.56;5044409;28;20104;-73
2022/02/06 12:51:25;;;;;;;76.95;40.17;;;;;;;7.46;100.00;97997.19;5051924;28;20021;-73
2022/02/06 12:54:07;;;;;;;70.70;39.75;;;;;;;7.47;100.00;97996.94;5050406;28;20020;-72
2022/02/06 12:56:33;;;;;;;73.45;40.25;;;;;;;7.48;100.00;97982.25;5051466;28;20037;-72
2022/02/06 12:58:59;;;;;;;69.40;39.47;;;;;;;7.50;100.00;97981.97;5051369;28;20028;-72
2022/02/06 13:01:41;;;;;;;77.80;39.83;;;;;;;7.46;100.00;97978.97;5036348;28;20033;-72
2022/02/06 13:04:10;;;;;;;71.07;39.97;;;;;;;7.52;100.00;97964.25;5032031;28;20038;-72
2022/02/06 13:06:46;;;;;;;72.95;38.75;;;;;;;7.51;100.00;97968.09;5031839;28;20026;-72
2022/02/06 13:09:29;;;;;;;72.03;39.72;;;;;;;7.48;100.00;97963.22;5030376;28;20021;-72
2022/02/06 13:12:06;;;;;;;77.65;40.75;;;;;;;7.52;100.00;97964.25;5038807;28;20127;-75
2022/02/06 13:29:04;;;;;;;65.47;35.75;;;;;;;7.70;100.00;97929.41;5051700;28;20032;-75
2022/02/06 13:31:19;;;;;;;63.67;34.40;;;;;;;7.61;100.00;97920.16;5053648;28;20102;-75
2022/02/06 13:36:35;;;;;;;63.20;35.92;;;;;;;7.60;100.00;97923.97;5051045;28;20025;-74
2022/02/06 13:39:08;;;;;;;62.25;35.30;;;;;;;7.63;100.00;97926.16;5051171;28;20017;-74
2022/02/06 13:41:34;;;;;;;70.32;36.47;;;;;;;7.67;100.00;97922.59;5051365;28;20461;-74
2022/02/06 13:44:02;;;;;;;61.13;33.80;;;;;;;7.60;100.00;97916.63;5048149;28;20017;-75
2022/02/06 13:46:35;;;;;;;57.60;31.25;;;;;;;7.60;100.00;97916.63;5051375;28;20478;-74
2022/02/06 13:49:01;;;;;;;60.33;32.20;;;;;;;7.62;100.00;97924.50;5051620;28;20028;-75
2022/02/06 13:51:35;;;;;;;59.42;32.63;;;;;;;7.58;100.00;97909.84;5051345;28;20457;-75
2022/02/06 13:54:04;;;;;;;58.28;32.38;;;;;;;7.62;100.00;97914.44;5054018;28;20033;-76
2022/02/06 13:56:30;;;;;;;55.60;32.05;;;;;;;7.65;100.00;97907.63;5056366;28;20033;-74
2022/02/06 13:59:04;;;;;;;56.75;31.95;;;;;;;7.68;100.00;97902.44;5051641;28;20093;-75
2022/02/06 14:01:42;;;;;;;53.15;29.77;;;;;;;7.79;100.00;97903.22;5049755;28;20108;-76
2022/02/06 14:04:30;;;;;;;56.15;30.67;;;;;;;7.77;100.00;97905.41;5050753;28;20098;-76
2022/02/06 14:07:16;;;;;;;59.45;30.50;;;;;;;7.82;100.00;97895.31;5050267;28;20083;-76
2022/02/06 14:12:23;;;;;;;51.60;28.80;;;;;;;7.83;100.00;97899.66;5051508;28;20137;-75
2022/02/06 14:14:57;;;;;;;57.03;29.83;;;;;;;7.83;100.00;97890.69;5056603;28;20036;-75
2022/02/06 14:17:27;;;;;;;46.95;28.92;;;;;;;7.87;100.00;97889.00;5055923;28;20036;-75